sensor_id;sensor_type;location;lat;lon;timestamp;temperature;humidity
11922;DHT22;6021;51.182;3.160;2022-11-21T00:01:27;7.50;99.90
11922;DHT22;6021;51.182;3.160;2022-11-21T00:03:55;7.50;99.90
11922;DHT22;6021;51.182;3.160;2022-11-21T00:06:24;7.60;99.90
11922;DHT22;6021;51.182;3.160;2022-11-21T00:08:54;7.60;99.90
11922;DHT22;6021;51.182;3.160;2022-11-21T00:11:22;7.70;99.90
11922;DHT22;6021;51.182;3.160;2022-11-21T00:13:51;7.60;99.90
11922;DHT22;6021;51.182;3.160;2022-11-21T00:16:21;7.50;99.90
11922;DHT22;6021;51.182;3.160;2022-11-21T00:18:49;7.70;99.90
11922;DHT22;6021;51.182;3.160;2022-11-21T00:21:18;7.40;99.90
11922;DHT22;6021;51.182;3.160;2022-11-21T00:23:47;7.70;99.90
11922;DHT22;6021;51.182;3.160;2022-11-21T00:26:16;7.40;99.90
11922;DHT22;6021;51.182;3.160;2022-11-21T00:28:44;7.40;99.90
11922;DHT22;6021;51.182;3.160;2022-11-21T00:31:20;7.70;99.90
11922;DHT22;6021;51.182;3.160;2022-11-21T00:33:48;7.60;99.90
11922;DHT22;6021;51.182;3.160;2022-11-21T00:36:17;7.20;99.90
11922;DHT22;6021;51.182;3.160;2022-11-21T00:38:45;7.70;99.90
11922;DHT22;6021;51.182;3.160;2022-11-21T00:41:13;7.20;99.90
11922;DHT22;6021;51.182;3.160;2022-11-21T00:43:42;7.40;99.90
11922;DHT22;6021;51.182;3.160;2022-11-21T00:48:43;7.50;99.90
11922;DHT22;6021;51.182;3.160;2022-11-21T00:51:11;7.40;99.90
11922;DHT22;6021;51.182;3.160;2022-11-21T00:53:40;7.40;99.90
11922;DHT22;6021;51.182;3.160;2022-11-21T00:56:09;7.70;99.90
11922;DHT22;6021;51.182;3.160;2022-11-21T00:58:37;7.40;99.90
11922;DHT22;6021;51.182;3.160;2022-11-21T01:01:12;7.60;99.90
11922;DHT22;6021;51.182;3.160;2022-11-21T01:03:40;7.50;99.90
11922;DHT22;6021;51.182;3.160;2022-11-21T01:06:15;7.50;99.90
11922;DHT22;6021;51.182;3.160;2022-11-21T01:08:42;7.60;99.90
11922;DHT22;6021;51.182;3.160;2022-11-21T01:11:16;7.50;99.90
11922;DHT22;6021;51.182;3.160;2022-11-21T01:13:46;7.60;99.90
11922;DHT22;6021;51.182;3.160;2022-11-21T01:16:19;7.60;99.90
11922;DHT22;6021;51.182;3.160;2022-11-21T01:18:48;7.70;99.90
11922;DHT22;6021;51.182;3.160;2022-11-21T01:21:21;7.80;99.90
11922;DHT22;6021;51.182;3.160;2022-11-21T01:23:50;7.90;99.90
11922;DHT22;6021;51.182;3.160;2022-11-21T01:26:21;7.70;99.90
11922;DHT22;6021;51.182;3.160;2022-11-21T01:28:51;7.70;99.90
11922;DHT22;6021;51.182;3.160;2022-11-21T01:31:22;7.80;99.90
11922;DHT22;6021;51.182;3.160;2022-11-21T01:33:50;7.70;99.90
11922;DHT22;6021;51.182;3.160;2022-11-21T01:36:22;7.90;99.90
11922;DHT22;6021;51.182;3.160;2022-11-21T01:38:53;8.00;99.90
11922;DHT22;6021;51.182;3.160;2022-11-21T01:41:28;7.90;99.90
11922;DHT22;6021;51.182;3.160;2022-11-21T01:43:54;8.00;99.90
11922;DHT22;6021;51.182;3.160;2022-11-21T01:46:23;7.90;99.90
11922;DHT22;6021;51.182;3.160;2022-11-21T01:49:19;8.10;99.90
11922;DHT22;6021;51.182;3.160;2022-11-21T01:51:52;8.00;99.90
11922;DHT22;6021;51.182;3.160;2022-11-21T01:54:28;8.00;99.90
11922;DHT22;6021;51.182;3.160;2022-11-21T01:57:00;8.00;99.90
11922;DHT22;6021;51.182;3.160;2022-11-21T01:59:35;7.70;99.90
11922;DHT22;6021;51.182;3.160;2022-11-21T02:02:05;7.80;99.90
11922;DHT22;6021;51.182;3.160;2022-11-21T02:04:34;7.70;99.90
11922;DHT22;6021;51.182;3.160;2022-11-21T02:07:05;7.60;99.90
11922;DHT22;6021;51.182;3.160;2022-11-21T02:09:36;7.50;99.90
11922;DHT22;6021;51.182;3.160;2022-11-21T02:12:08;7.30;99.90
11922;DHT22;6021;51.182;3.160;2022-11-21T02:14:41;7.70;99.90
11922;DHT22;6021;51.182;3.160;2022-11-21T02:17:10;7.20;99.90
11922;DHT22;6021;51.182;3.160;2022-11-21T02:20:04;7.60;99.90
11922;DHT22;6021;51.182;3.160;2022-11-21T02:27:38;7.30;99.90
11922;DHT22;6021;51.182;3.160;2022-11-21T02:30:08;7.30;99.90
11922;DHT22;6021;51.182;3.160;2022-11-21T02:32:39;7.20;99.90
11922;DHT22;6021;51.182;3.160;2022-11-21T02:35:08;7.10;99.90
11922;DHT22;6021;51.182;3.160;2022-11-21T02:37:37;7.10;99.90
11922;DHT22;6021;51.182;3.160;2022-11-21T02:40:09;7.10;99.90
11922;DHT22;6021;51.182;3.160;2022-11-21T02:42:45;7.00;99.90
11922;DHT22;6021;51.182;3.160;2022-11-21T02:45:29;7.10;99.90
11922;DHT22;6021;51.182;3.160;2022-11-21T02:47:57;7.10;99.90
11922;DHT22;6021;51.182;3.160;2022-11-21T02:50:27;7.20;99.90
11922;DHT22;6021;51.182;3.160;2022-11-21T02:52:56;6.90;99.90
11922;DHT22;6021;51.182;3.160;2022-11-21T02:55:25;7.20;99.90
11922;DHT22;6021;51.182;3.160;2022-11-21T02:57:54;6.70;99.90
11922;DHT22;6021;51.182;3.160;2022-11-21T03:00:22;6.90;99.90
11922;DHT22;6021;51.182;3.160;2022-11-21T03:02:51;6.80;99.90
11922;DHT22;6021;51.182;3.160;2022-11-21T03:05:20;6.90;99.90
11922;DHT22;6021;51.182;3.160;2022-11-21T03:07:49;6.70;99.90
11922;DHT22;6021;51.182;3.160;2022-11-21T03:10:18;6.90;99.90
11922;DHT22;6021;51.182;3.160;2022-11-21T03:12:46;7.00;99.90
11922;DHT22;6021;51.182;3.160;2022-11-21T03:15:15;7.10;99.90
11922;DHT22;6021;51.182;3.160;2022-11-21T03:17:47;7.10;99.90
11922;DHT22;6021;51.182;3.160;2022-11-21T03:20:15;7.10;99.90
11922;DHT22;6021;51.182;3.160;2022-11-21T03:22:44;7.20;99.90
11922;DHT22;6021;51.182;3.160;2022-11-21T03:25:12;7.20;99.90
11922;DHT22;6021;51.182;3.160;2022-11-21T03:27:41;7.40;99.90
11922;DHT22;6021;51.182;3.160;2022-11-21T03:30:09;7.10;99.90
11922;DHT22;6021;51.182;3.160;2022-11-21T03:32:38;7.40;99.90
11922;DHT22;6021;51.182;3.160;2022-11-21T03:35:06;7.50;99.90
11922;DHT22;6021;51.182;3.160;2022-11-21T03:37:35;7.50;99.90
11922;DHT22;6021;51.182;3.160;2022-11-21T03:40:03;7.40;99.90
11922;DHT22;6021;51.182;3.160;2022-11-21T03:42:32;7.50;99.90
11922;DHT22;6021;51.182;3.160;2022-11-21T03:45:00;7.30;99.90
11922;DHT22;6021;51.182;3.160;2022-11-21T03:47:28;7.40;99.90
11922;DHT22;6021;51.182;3.160;2022-11-21T03:49:57;7.20;99.90
11922;DHT22;6021;51.182;3.160;2022-11-21T03:52:25;7.40;99.90
11922;DHT22;6021;51.182;3.160;2022-11-21T03:54:54;7.20;99.90
11922;DHT22;6021;51.182;3.160;2022-11-21T03:57:22;7.40;99.90
11922;DHT22;6021;51.182;3.160;2022-11-21T03:59:50;7.20;99.90
11922;DHT22;6021;51.182;3.160;2022-11-21T04:02:18;7.40;99.90
11922;DHT22;6021;51.182;3.160;2022-11-21T04:04:47;7.40;99.90
11922;DHT22;6021;51.182;3.160;2022-11-21T04:07:15;7.40;99.90
11922;DHT22;6021;51.182;3.160;2022-11-21T04:09:44;7.20;99.90
11922;DHT22;6021;51.182;3.160;2022-11-21T04:12:12;7.00;99.90
11922;DHT22;6021;51.182;3.160;2022-11-21T04:14:40;6.70;99.90
11922;DHT22;6021;51.182;3.160;2022-11-21T04:17:09;6.90;99.90
11922;DHT22;6021;51.182;3.160;2022-11-21T04:19:37;6.70;99.90
11922;DHT22;6021;51.182;3.160;2022-11-21T04:22:06;7.10;99.90
11922;DHT22;6021;51.182;3.160;2022-11-21T04:24:34;7.10;99.90
11922;DHT22;6021;51.182;3.160;2022-11-21T04:27:03;6.90;99.90
11922;DHT22;6021;51.182;3.160;2022-11-21T04:29:31;6.80;99.90
11922;DHT22;6021;51.182;3.160;2022-11-21T04:32:00;7.00;99.90
11922;DHT22;6021;51.182;3.160;2022-11-21T04:34:28;6.90;99.90
11922;DHT22;6021;51.182;3.160;2022-11-21T04:36:56;6.80;99.90
11922;DHT22;6021;51.182;3.160;2022-11-21T04:39:24;7.00;99.90
11922;DHT22;6021;51.182;3.160;2022-11-21T04:41:53;6.90;99.90
11922;DHT22;6021;51.182;3.160;2022-11-21T04:44:21;6.80;99.90
11922;DHT22;6021;51.182;3.160;2022-11-21T04:46:49;7.00;99.90
11922;DHT22;6021;51.182;3.160;2022-11-21T04:52:03;6.60;99.90
11922;DHT22;6021;51.182;3.160;2022-11-21T04:54:32;6.90;99.90
11922;DHT22;6021;51.182;3.160;2022-11-21T04:57:00;7.10;99.90
11922;DHT22;6021;51.182;3.160;2022-11-21T04:59:29;6.40;99.90
11922;DHT22;6021;51.182;3.160;2022-11-21T05:01:57;6.80;99.90
11922;DHT22;6021;51.182;3.160;2022-11-21T05:04:26;6.60;99.90
11922;DHT22;6021;51.182;3.160;2022-11-21T05:06:54;6.50;99.90
11922;DHT22;6021;51.182;3.160;2022-11-21T05:09:22;6.60;99.90
11922;DHT22;6021;51.182;3.160;2022-11-21T05:11:50;6.50;99.90
11922;DHT22;6021;51.182;3.160;2022-11-21T05:14:36;6.30;99.90
11922;DHT22;6021;51.182;3.160;2022-11-21T05:17:05;6.60;99.90
11922;DHT22;6021;51.182;3.160;2022-11-21T05:19:33;6.40;99.90
11922;DHT22;6021;51.182;3.160;2022-11-21T05:22:01;6.60;99.90
11922;DHT22;6021;51.182;3.160;2022-11-21T05:24:30;6.50;99.90
11922;DHT22;6021;51.182;3.160;2022-11-21T05:26:59;6.60;99.90
11922;DHT22;6021;51.182;3.160;2022-11-21T05:29:27;6.40;99.90
11922;DHT22;6021;51.182;3.160;2022-11-21T05:31:56;6.20;99.90
11922;DHT22;6021;51.182;3.160;2022-11-21T05:34:24;6.30;99.90
11922;DHT22;6021;51.182;3.160;2022-11-21T05:36:53;6.20;99.90
11922;DHT22;6021;51.182;3.160;2022-11-21T05:39:27;6.40;99.90
11922;DHT22;6021;51.182;3.160;2022-11-21T05:41:56;6.30;99.90
11922;DHT22;6021;51.182;3.160;2022-11-21T05:44:24;6.20;99.90
11922;DHT22;6021;51.182;3.160;2022-11-21T05:46:52;6.10;99.90
11922;DHT22;6021;51.182;3.160;2022-11-21T05:49:21;6.50;99.90
11922;DHT22;6021;51.182;3.160;2022-11-21T05:51:49;6.30;99.90
11922;DHT22;6021;51.182;3.160;2022-11-21T05:54:18;6.20;99.90
11922;DHT22;6021;51.182;3.160;2022-11-21T05:56:46;5.90;99.90
11922;DHT22;6021;51.182;3.160;2022-11-21T05:59:14;6.10;99.90
11922;DHT22;6021;51.182;3.160;2022-11-21T06:01:42;6.20;99.90
11922;DHT22;6021;51.182;3.160;2022-11-21T06:04:29;6.10;99.90
11922;DHT22;6021;51.182;3.160;2022-11-21T06:06:57;6.30;99.90
11922;DHT22;6021;51.182;3.160;2022-11-21T06:09:26;6.00;99.90
11922;DHT22;6021;51.182;3.160;2022-11-21T06:11:54;5.80;99.90
11922;DHT22;6021;51.182;3.160;2022-11-21T06:14:22;6.00;99.90
11922;DHT22;6021;51.182;3.160;2022-11-21T06:16:51;5.80;99.90
11922;DHT22;6021;51.182;3.160;2022-11-21T06:19:19;6.10;99.90
11922;DHT22;6021;51.182;3.160;2022-11-21T06:21:47;5.90;99.90
11922;DHT22;6021;51.182;3.160;2022-11-21T06:24:16;5.70;99.90
11922;DHT22;6021;51.182;3.160;2022-11-21T06:26:44;5.70;99.90
11922;DHT22;6021;51.182;3.160;2022-11-21T06:29:12;6.00;99.90
11922;DHT22;6021;51.182;3.160;2022-11-21T06:31:40;5.80;99.90
11922;DHT22;6021;51.182;3.160;2022-11-21T06:34:09;5.70;99.90
11922;DHT22;6021;51.182;3.160;2022-11-21T06:36:37;5.60;99.90
11922;DHT22;6021;51.182;3.160;2022-11-21T06:39:05;5.90;99.90
11922;DHT22;6021;51.182;3.160;2022-11-21T06:41:34;5.60;99.90
11922;DHT22;6021;51.182;3.160;2022-11-21T06:44:02;5.80;99.90
11922;DHT22;6021;51.182;3.160;2022-11-21T06:46:31;5.50;99.90
11922;DHT22;6021;51.182;3.160;2022-11-21T06:48:59;5.50;99.90
11922;DHT22;6021;51.182;3.160;2022-11-21T06:54:05;5.60;99.90
11922;DHT22;6021;51.182;3.160;2022-11-21T06:56:33;5.40;99.90
11922;DHT22;6021;51.182;3.160;2022-11-21T07:01:37;5.50;99.90
11922;DHT22;6021;51.182;3.160;2022-11-21T07:04:06;5.60;99.90
11922;DHT22;6021;51.182;3.160;2022-11-21T07:06:34;5.60;99.90
11922;DHT22;6021;51.182;3.160;2022-11-21T07:09:03;5.60;99.90
11922;DHT22;6021;51.182;3.160;2022-11-21T07:14:07;5.20;99.90
11922;DHT22;6021;51.182;3.160;2022-11-21T07:16:37;5.40;99.90
11922;DHT22;6021;51.182;3.160;2022-11-21T07:19:06;5.20;99.90
11922;DHT22;6021;51.182;3.160;2022-11-21T07:21:34;5.30;99.90
11922;DHT22;6021;51.182;3.160;2022-11-21T07:24:03;5.30;99.90
11922;DHT22;6021;51.182;3.160;2022-11-21T07:26:31;5.40;99.90
11922;DHT22;6021;51.182;3.160;2022-11-21T07:29:00;5.40;99.90
11922;DHT22;6021;51.182;3.160;2022-11-21T07:31:28;5.30;99.90
11922;DHT22;6021;51.182;3.160;2022-11-21T07:33:56;5.40;99.90
11922;DHT22;6021;51.182;3.160;2022-11-21T07:36:25;5.20;99.90
11922;DHT22;6021;51.182;3.160;2022-11-21T07:38:53;5.60;99.90
11922;DHT22;6021;51.182;3.160;2022-11-21T07:41:21;5.30;99.90
11922;DHT22;6021;51.182;3.160;2022-11-21T07:43:50;5.30;99.90
11922;DHT22;6021;51.182;3.160;2022-11-21T07:46:18;5.40;99.90
11922;DHT22;6021;51.182;3.160;2022-11-21T07:48:47;5.30;99.90
11922;DHT22;6021;51.182;3.160;2022-11-21T07:56:25;5.50;99.90
11922;DHT22;6021;51.182;3.160;2022-11-21T07:58:53;5.20;99.90
11922;DHT22;6021;51.182;3.160;2022-11-21T08:01:21;5.20;99.90
11922;DHT22;6021;51.182;3.160;2022-11-21T08:03:50;5.20;99.90
11922;DHT22;6021;51.182;3.160;2022-11-21T08:06:21;5.20;99.90
11922;DHT22;6021;51.182;3.160;2022-11-21T08:08:53;5.10;99.90
11922;DHT22;6021;51.182;3.160;2022-11-21T08:11:22;5.20;99.90
11922;DHT22;6021;51.182;3.160;2022-11-21T08:13:50;5.20;99.90
11922;DHT22;6021;51.182;3.160;2022-11-21T08:16:18;5.40;99.90
11922;DHT22;6021;51.182;3.160;2022-11-21T08:18:49;5.40;99.90
11922;DHT22;6021;51.182;3.160;2022-11-21T08:21:19;5.20;99.90
11922;DHT22;6021;51.182;3.160;2022-11-21T08:23:47;5.50;99.90
11922;DHT22;6021;51.182;3.160;2022-11-21T08:26:16;5.50;99.90
11922;DHT22;6021;51.182;3.160;2022-11-21T08:28:44;5.50;99.90
11922;DHT22;6021;51.182;3.160;2022-11-21T08:31:14;5.60;99.90
11922;DHT22;6021;51.182;3.160;2022-11-21T08:36:23;5.50;99.90
11922;DHT22;6021;51.182;3.160;2022-11-21T08:38:52;5.50;99.90
11922;DHT22;6021;51.182;3.160;2022-11-21T08:41:24;5.60;99.90
11922;DHT22;6021;51.182;3.160;2022-11-21T08:44:09;5.90;99.90
11922;DHT22;6021;51.182;3.160;2022-11-21T08:46:37;5.50;99.90
11922;DHT22;6021;51.182;3.160;2022-11-21T08:54:24;5.70;99.90
11922;DHT22;6021;51.182;3.160;2022-11-21T08:56:52;6.00;99.90
11922;DHT22;6021;51.182;3.160;2022-11-21T08:59:21;6.00;99.90
11922;DHT22;6021;51.182;3.160;2022-11-21T09:01:50;6.10;99.90
11922;DHT22;6021;51.182;3.160;2022-11-21T09:04:19;6.20;99.90
11922;DHT22;6021;51.182;3.160;2022-11-21T09:06:47;6.50;99.90
11922;DHT22;6021;51.182;3.160;2022-11-21T09:09:17;6.50;99.90
11922;DHT22;6021;51.182;3.160;2022-11-21T09:11:45;6.10;99.90
11922;DHT22;6021;51.182;3.160;2022-11-21T09:14:14;6.30;99.90
11922;DHT22;6021;51.182;3.160;2022-11-21T09:17:00;6.20;99.90
11922;DHT22;6021;51.182;3.160;2022-11-21T09:19:46;6.20;99.90
11922;DHT22;6021;51.182;3.160;2022-11-21T09:22:14;6.50;99.90
11922;DHT22;6021;51.182;3.160;2022-11-21T09:24:42;6.40;99.90
11922;DHT22;6021;51.182;3.160;2022-11-21T09:27:13;6.50;99.90
11922;DHT22;6021;51.182;3.160;2022-11-21T09:29:41;6.40;99.90
11922;DHT22;6021;51.182;3.160;2022-11-21T09:32:10;6.60;99.90
11922;DHT22;6021;51.182;3.160;2022-11-21T09:34:38;6.50;99.90
11922;DHT22;6021;51.182;3.160;2022-11-21T09:37:07;6.40;99.90
11922;DHT22;6021;51.182;3.160;2022-11-21T09:39:35;6.80;99.90
11922;DHT22;6021;51.182;3.160;2022-11-21T09:45:03;6.80;99.90
11922;DHT22;6021;51.182;3.160;2022-11-21T09:47:41;6.80;99.90
11922;DHT22;6021;51.182;3.160;2022-11-21T09:52:56;6.60;99.90
11922;DHT22;6021;51.182;3.160;2022-11-21T09:55:40;6.50;99.90
11922;DHT22;6021;51.182;3.160;2022-11-21T09:58:54;6.60;99.90
11922;DHT22;6021;51.182;3.160;2022-11-21T10:00:40;6.70;99.90
11922;DHT22;6021;51.182;3.160;2022-11-21T10:03:10;6.80;99.90
11922;DHT22;6021;51.182;3.160;2022-11-21T10:05:43;6.60;99.90
11922;DHT22;6021;51.182;3.160;2022-11-21T10:14:11;6.40;99.90
11922;DHT22;6021;51.182;3.160;2022-11-21T10:16:50;6.60;99.90
11922;DHT22;6021;51.182;3.160;2022-11-21T10:24:55;6.50;99.90
11922;DHT22;6021;51.182;3.160;2022-11-21T10:27:30;6.60;99.90
11922;DHT22;6021;51.182;3.160;2022-11-21T10:30:11;6.80;99.90
11922;DHT22;6021;51.182;3.160;2022-11-21T10:32:56;6.60;99.90
11922;DHT22;6021;51.182;3.160;2022-11-21T10:38:22;7.00;99.90
11922;DHT22;6021;51.182;3.160;2022-11-21T10:43:52;6.70;99.90
11922;DHT22;6021;51.182;3.160;2022-11-21T10:46:32;7.00;99.90
11922;DHT22;6021;51.182;3.160;2022-11-21T10:49:02;7.00;99.90
11922;DHT22;6021;51.182;3.160;2022-11-21T10:54:08;6.70;99.90
11922;DHT22;6021;51.182;3.160;2022-11-21T10:57:00;6.60;99.90
11922;DHT22;6021;51.182;3.160;2022-11-21T10:59:35;6.70;99.90
11922;DHT22;6021;51.182;3.160;2022-11-21T11:02:02;6.60;99.90
11922;DHT22;6021;51.182;3.160;2022-11-21T11:04:31;6.60;99.90
11922;DHT22;6021;51.182;3.160;2022-11-21T11:09:49;7.00;99.90
11922;DHT22;6021;51.182;3.160;2022-11-21T11:12:21;7.00;99.90
11922;DHT22;6021;51.182;3.160;2022-11-21T11:14:52;7.00;99.90
11922;DHT22;6021;51.182;3.160;2022-11-21T11:17:31;7.00;99.90
11922;DHT22;6021;51.182;3.160;2022-11-21T11:20:06;7.10;99.90
11922;DHT22;6021;51.182;3.160;2022-11-21T11:22:34;6.60;99.90
11922;DHT22;6021;51.182;3.160;2022-11-21T11:25:04;6.80;99.90
11922;DHT22;6021;51.182;3.160;2022-11-21T11:27:32;7.10;99.90
11922;DHT22;6021;51.182;3.160;2022-11-21T11:30:05;7.10;99.90
11922;DHT22;6021;51.182;3.160;2022-11-21T11:32:38;6.90;99.90
11922;DHT22;6021;51.182;3.160;2022-11-21T11:35:30;7.00;99.90
11922;DHT22;6021;51.182;3.160;2022-11-21T11:38:00;7.00;99.90
11922;DHT22;6021;51.182;3.160;2022-11-21T11:40:37;7.00;99.90
11922;DHT22;6021;51.182;3.160;2022-11-21T11:49:14;7.10;99.90
11922;DHT22;6021;51.182;3.160;2022-11-21T11:54:14;6.80;99.90
11922;DHT22;6021;51.182;3.160;2022-11-21T11:56:44;7.10;99.90
11922;DHT22;6021;51.182;3.160;2022-11-21T11:59:27;7.10;99.90
11922;DHT22;6021;51.182;3.160;2022-11-21T12:02:09;7.10;99.90
11922;DHT22;6021;51.182;3.160;2022-11-21T12:04:40;7.30;99.90
11922;DHT22;6021;51.182;3.160;2022-11-21T12:10:33;7.20;99.90
11922;DHT22;6021;51.182;3.160;2022-11-21T12:13:10;7.30;99.90
11922;DHT22;6021;51.182;3.160;2022-11-21T12:15:43;7.60;99.90
11922;DHT22;6021;51.182;3.160;2022-11-21T12:21:08;7.70;99.90
11922;DHT22;6021;51.182;3.160;2022-11-21T12:29:30;7.40;99.90
11922;DHT22;6021;51.182;3.160;2022-11-21T12:45:37;7.70;99.90
11922;DHT22;6021;51.182;3.160;2022-11-21T12:48:33;7.70;99.90
11922;DHT22;6021;51.182;3.160;2022-11-21T12:57:16;8.00;99.90
11922;DHT22;6021;51.182;3.160;2022-11-21T13:05:45;7.80;99.90
11922;DHT22;6021;51.182;3.160;2022-11-21T13:08:25;8.10;99.90
11922;DHT22;6021;51.182;3.160;2022-11-21T13:11:10;7.90;99.90
11922;DHT22;6021;51.182;3.160;2022-11-21T13:23:01;8.00;99.90
11922;DHT22;6021;51.182;3.160;2022-11-21T13:25:37;8.10;99.90
11922;DHT22;6021;51.182;3.160;2022-11-21T13:30:50;8.20;99.90
11922;DHT22;6021;51.182;3.160;2022-11-21T13:36:09;8.30;99.90
11922;DHT22;6021;51.182;3.160;2022-11-21T13:52:36;8.40;99.90
11922;DHT22;6021;51.182;3.160;2022-11-21T14:03:29;8.60;99.90
11922;DHT22;6021;51.182;3.160;2022-11-21T14:08:39;8.30;99.90
11922;DHT22;6021;51.182;3.160;2022-11-21T14:11:29;8.30;99.90
11922;DHT22;6021;51.182;3.160;2022-11-21T14:13:50;8.20;99.90
11922;DHT22;6021;51.182;3.160;2022-11-21T14:18:50;8.20;99.90
11922;DHT22;6021;51.182;3.160;2022-11-21T14:21:30;8.20;99.90
11922;DHT22;6021;51.182;3.160;2022-11-21T14:23:59;8.20;99.90
11922;DHT22;6021;51.182;3.160;2022-11-21T14:26:32;8.20;99.90
11922;DHT22;6021;51.182;3.160;2022-11-21T14:29:16;8.20;99.90
11922;DHT22;6021;51.182;3.160;2022-11-21T14:31:47;8.40;99.90
11922;DHT22;6021;51.182;3.160;2022-11-21T14:34:27;8.40;99.90
11922;DHT22;6021;51.182;3.160;2022-11-21T14:37:01;8.50;99.90
11922;DHT22;6021;51.182;3.160;2022-11-21T14:42:16;8.30;99.90
11922;DHT22;6021;51.182;3.160;2022-11-21T14:44:44;8.30;99.90
11922;DHT22;6021;51.182;3.160;2022-11-21T14:47:31;8.20;99.90
11922;DHT22;6021;51.182;3.160;2022-11-21T14:50:01;8.30;99.90
11922;DHT22;6021;51.182;3.160;2022-11-21T14:52:32;8.30;99.90
11922;DHT22;6021;51.182;3.160;2022-11-21T15:00:18;8.30;99.90
11922;DHT22;6021;51.182;3.160;2022-11-21T15:02:54;8.50;99.90
11922;DHT22;6021;51.182;3.160;2022-11-21T15:05:33;8.50;99.90
11922;DHT22;6021;51.182;3.160;2022-11-21T15:08:01;8.50;99.90
11922;DHT22;6021;51.182;3.160;2022-11-21T15:10:33;8.50;99.90
11922;DHT22;6021;51.182;3.160;2022-11-21T15:13:10;8.30;99.90
11922;DHT22;6021;51.182;3.160;2022-11-21T15:15:45;8.20;99.90
11922;DHT22;6021;51.182;3.160;2022-11-21T15:18:19;8.30;99.90
11922;DHT22;6021;51.182;3.160;2022-11-21T15:23:30;8.20;99.90
11922;DHT22;6021;51.182;3.160;2022-11-21T15:25:59;8.20;99.90
11922;DHT22;6021;51.182;3.160;2022-11-21T15:28:29;8.30;99.90
11922;DHT22;6021;51.182;3.160;2022-11-21T15:34:00;8.10;99.90
11922;DHT22;6021;51.182;3.160;2022-11-21T15:36:31;8.00;99.90
11922;DHT22;6021;51.182;3.160;2022-11-21T15:39:20;8.00;99.90
11922;DHT22;6021;51.182;3.160;2022-11-21T15:41:43;8.00;99.90
11922;DHT22;6021;51.182;3.160;2022-11-21T15:44:29;7.90;99.90
11922;DHT22;6021;51.182;3.160;2022-11-21T15:46:57;7.90;99.90
11922;DHT22;6021;51.182;3.160;2022-11-21T15:49:26;8.00;99.90
11922;DHT22;6021;51.182;3.160;2022-11-21T15:51:54;8.20;99.90
11922;DHT22;6021;51.182;3.160;2022-11-21T15:54:23;8.10;99.90
11922;DHT22;6021;51.182;3.160;2022-11-21T15:56:51;7.80;99.90
11922;DHT22;6021;51.182;3.160;2022-11-21T15:59:19;7.90;99.90
11922;DHT22;6021;51.182;3.160;2022-11-21T16:01:48;7.80;99.90
11922;DHT22;6021;51.182;3.160;2022-11-21T16:04:16;7.90;99.90
11922;DHT22;6021;51.182;3.160;2022-11-21T16:06:44;7.80;99.90
11922;DHT22;6021;51.182;3.160;2022-11-21T16:09:13;8.20;99.90
11922;DHT22;6021;51.182;3.160;2022-11-21T16:11:41;8.00;99.90
11922;DHT22;6021;51.182;3.160;2022-11-21T16:14:15;7.90;99.90
11922;DHT22;6021;51.182;3.160;2022-11-21T16:16:44;7.80;99.90
11922;DHT22;6021;51.182;3.160;2022-11-21T16:19:14;7.80;99.90
11922;DHT22;6021;51.182;3.160;2022-11-21T16:21:42;7.90;99.90
11922;DHT22;6021;51.182;3.160;2022-11-21T16:24:11;7.80;99.90
11922;DHT22;6021;51.182;3.160;2022-11-21T16:26:39;7.90;99.90
11922;DHT22;6021;51.182;3.160;2022-11-21T16:29:09;7.90;99.90
11922;DHT22;6021;51.182;3.160;2022-11-21T16:31:37;7.70;99.90
11922;DHT22;6021;51.182;3.160;2022-11-21T16:34:06;7.90;99.90
11922;DHT22;6021;51.182;3.160;2022-11-21T16:36:34;7.80;99.90
11922;DHT22;6021;51.182;3.160;2022-11-21T16:39:03;7.90;99.90
11922;DHT22;6021;51.182;3.160;2022-11-21T16:41:31;7.70;99.90
11922;DHT22;6021;51.182;3.160;2022-11-21T16:44:00;7.60;99.90
11922;DHT22;6021;51.182;3.160;2022-11-21T16:46:28;7.80;99.90
11922;DHT22;6021;51.182;3.160;2022-11-21T16:49:01;7.60;99.90
11922;DHT22;6021;51.182;3.160;2022-11-21T16:51:30;7.90;99.90
11922;DHT22;6021;51.182;3.160;2022-11-21T16:53:58;7.60;99.90
11922;DHT22;6021;51.182;3.160;2022-11-21T16:56:27;7.90;99.90
11922;DHT22;6021;51.182;3.160;2022-11-21T16:58:56;7.60;99.90
11922;DHT22;6021;51.182;3.160;2022-11-21T17:01:25;7.50;99.90
11922;DHT22;6021;51.182;3.160;2022-11-21T17:03:54;7.70;99.90
11922;DHT22;6021;51.182;3.160;2022-11-21T17:06:25;7.50;99.90
11922;DHT22;6021;51.182;3.160;2022-11-21T17:08:53;7.50;99.90
11922;DHT22;6021;51.182;3.160;2022-11-21T17:11:24;7.60;99.90
11922;DHT22;6021;51.182;3.160;2022-11-21T17:14:00;7.40;99.90
11922;DHT22;6021;51.182;3.160;2022-11-21T17:16:28;7.60;99.90
11922;DHT22;6021;51.182;3.160;2022-11-21T17:18:58;7.60;99.90
11922;DHT22;6021;51.182;3.160;2022-11-21T17:21:28;7.40;99.90
11922;DHT22;6021;51.182;3.160;2022-11-21T17:23:56;7.40;99.90
11922;DHT22;6021;51.182;3.160;2022-11-21T17:26:26;7.10;99.90
11922;DHT22;6021;51.182;3.160;2022-11-21T17:28:58;7.30;99.90
11922;DHT22;6021;51.182;3.160;2022-11-21T17:31:27;7.20;99.90
11922;DHT22;6021;51.182;3.160;2022-11-21T17:33:56;7.50;99.90
11922;DHT22;6021;51.182;3.160;2022-11-21T17:36:26;7.30;99.90
11922;DHT22;6021;51.182;3.160;2022-11-21T17:38:55;7.10;99.90
11922;DHT22;6021;51.182;3.160;2022-11-21T17:41:24;7.40;99.90
11922;DHT22;6021;51.182;3.160;2022-11-21T17:43:54;7.20;99.90
11922;DHT22;6021;51.182;3.160;2022-11-21T17:46:23;7.20;99.90
11922;DHT22;6021;51.182;3.160;2022-11-21T17:48:55;7.50;99.90
11922;DHT22;6021;51.182;3.160;2022-11-21T17:51:30;7.60;99.90
11922;DHT22;6021;51.182;3.160;2022-11-21T17:54:01;7.60;99.90
11922;DHT22;6021;51.182;3.160;2022-11-21T17:56:31;7.20;99.90
11922;DHT22;6021;51.182;3.160;2022-11-21T17:59:00;7.30;99.90
11922;DHT22;6021;51.182;3.160;2022-11-21T18:01:29;7.10;99.90
11922;DHT22;6021;51.182;3.160;2022-11-21T18:04:03;7.10;99.90
11922;DHT22;6021;51.182;3.160;2022-11-21T18:06:38;7.40;99.90
11922;DHT22;6021;51.182;3.160;2022-11-21T18:09:06;7.10;99.90
11922;DHT22;6021;51.182;3.160;2022-11-21T18:11:35;7.20;99.90
11922;DHT22;6021;51.182;3.160;2022-11-21T18:14:05;7.60;99.90
11922;DHT22;6021;51.182;3.160;2022-11-21T18:16:33;7.10;99.90
11922;DHT22;6021;51.182;3.160;2022-11-21T18:19:05;7.10;99.90
11922;DHT22;6021;51.182;3.160;2022-11-21T18:21:34;7.20;99.90
11922;DHT22;6021;51.182;3.160;2022-11-21T18:24:03;7.50;99.90
11922;DHT22;6021;51.182;3.160;2022-11-21T18:26:34;7.10;99.90
11922;DHT22;6021;51.182;3.160;2022-11-21T18:29:05;7.10;99.90
11922;DHT22;6021;51.182;3.160;2022-11-21T18:31:34;7.60;99.90
11922;DHT22;6021;51.182;3.160;2022-11-21T18:34:04;7.10;99.90
11922;DHT22;6021;51.182;3.160;2022-11-21T18:36:33;7.60;99.90
11922;DHT22;6021;51.182;3.160;2022-11-21T18:39:03;7.10;99.90
11922;DHT22;6021;51.182;3.160;2022-11-21T18:41:32;7.30;99.90
11922;DHT22;6021;51.182;3.160;2022-11-21T18:44:02;7.10;99.90
11922;DHT22;6021;51.182;3.160;2022-11-21T18:46:32;7.10;99.90
11922;DHT22;6021;51.182;3.160;2022-11-21T18:49:01;7.40;99.90
11922;DHT22;6021;51.182;3.160;2022-11-21T18:51:31;7.10;99.90
11922;DHT22;6021;51.182;3.160;2022-11-21T18:54:01;7.10;99.90
11922;DHT22;6021;51.182;3.160;2022-11-21T18:56:31;7.20;99.90
11922;DHT22;6021;51.182;3.160;2022-11-21T18:58:59;7.50;99.90
11922;DHT22;6021;51.182;3.160;2022-11-21T19:01:29;7.60;99.90
11922;DHT22;6021;51.182;3.160;2022-11-21T19:03:58;7.60;99.90
11922;DHT22;6021;51.182;3.160;2022-11-21T19:06:27;7.20;99.90